sensor_id;sensor_type;location;lat;lon;timestamp;temperature;humidity
67163;DHT22;54092;53.088;8.850;2023-05-07T00:00:32;10.50;99.90
67163;DHT22;54092;53.088;8.850;2023-05-07T00:02:59;10.60;99.90
67163;DHT22;54092;53.088;8.850;2023-05-07T00:05:25;10.50;99.90
67163;DHT22;54092;53.088;8.850;2023-05-07T00:07:51;10.60;99.90
67163;DHT22;54092;53.088;8.850;2023-05-07T00:10:18;10.50;99.90
67163;DHT22;54092;53.088;8.850;2023-05-07T00:12:44;10.50;99.90
67163;DHT22;54092;53.088;8.850;2023-05-07T00:15:10;10.40;99.90
67163;DHT22;54092;53.088;8.850;2023-05-07T00:17:36;10.40;99.90
67163;DHT22;54092;53.088;8.850;2023-05-07T00:20:03;10.40;99.90
67163;DHT22;54092;53.088;8.850;2023-05-07T00:22:29;10.40;99.90
67163;DHT22;54092;53.088;8.850;2023-05-07T00:24:55;10.40;99.90
67163;DHT22;54092;53.088;8.850;2023-05-07T00:27:22;10.40;99.90
67163;DHT22;54092;53.088;8.850;2023-05-07T00:29:48;10.30;99.90
67163;DHT22;54092;53.088;8.850;2023-05-07T00:32:13;10.30;99.90
67163;DHT22;54092;53.088;8.850;2023-05-07T00:34:39;10.30;99.90
67163;DHT22;54092;53.088;8.850;2023-05-07T00:37:04;10.30;99.90
67163;DHT22;54092;53.088;8.850;2023-05-07T00:39:33;10.30;99.90
67163;DHT22;54092;53.088;8.850;2023-05-07T00:41:59;10.40;99.90
67163;DHT22;54092;53.088;8.850;2023-05-07T00:44:26;10.40;99.90
67163;DHT22;54092;53.088;8.850;2023-05-07T00:46:51;10.40;99.90
67163;DHT22;54092;53.088;8.850;2023-05-07T00:49:18;10.40;99.90
67163;DHT22;54092;53.088;8.850;2023-05-07T00:51:45;10.40;99.90
67163;DHT22;54092;53.088;8.850;2023-05-07T00:54:10;10.40;99.90
67163;DHT22;54092;53.088;8.850;2023-05-07T00:56:36;10.40;99.90
67163;DHT22;54092;53.088;8.850;2023-05-07T00:59:03;10.40;99.90
67163;DHT22;54092;53.088;8.850;2023-05-07T01:01:28;10.30;99.90
67163;DHT22;54092;53.088;8.850;2023-05-07T01:03:54;10.20;99.90
67163;DHT22;54092;53.088;8.850;2023-05-07T01:06:21;10.20;99.90
67163;DHT22;54092;53.088;8.850;2023-05-07T01:08:47;10.10;99.90
67163;DHT22;54092;53.088;8.850;2023-05-07T01:11:16;10.10;99.90
67163;DHT22;54092;53.088;8.850;2023-05-07T01:13:42;10.10;99.90
67163;DHT22;54092;53.088;8.850;2023-05-07T01:16:09;10.10;99.90
67163;DHT22;54092;53.088;8.850;2023-05-07T01:18:35;10.10;99.90
67163;DHT22;54092;53.088;8.850;2023-05-07T01:21:01;10.10;99.90
67163;DHT22;54092;53.088;8.850;2023-05-07T01:23:29;10.10;99.90
67163;DHT22;54092;53.088;8.850;2023-05-07T01:25:56;10.10;99.90
67163;DHT22;54092;53.088;8.850;2023-05-07T01:28:21;10.00;99.90
67163;DHT22;54092;53.088;8.850;2023-05-07T01:30:52;10.00;99.90
67163;DHT22;54092;53.088;8.850;2023-05-07T01:33:21;9.90;99.90
67163;DHT22;54092;53.088;8.850;2023-05-07T01:35:52;9.90;99.90
67163;DHT22;54092;53.088;8.850;2023-05-07T01:38:19;9.90;99.90
67163;DHT22;54092;53.088;8.850;2023-05-07T01:40:46;9.90;99.90
67163;DHT22;54092;53.088;8.850;2023-05-07T01:43:12;9.80;99.90
67163;DHT22;54092;53.088;8.850;2023-05-07T01:45:38;9.80;99.90
67163;DHT22;54092;53.088;8.850;2023-05-07T01:48:05;9.80;99.90
67163;DHT22;54092;53.088;8.850;2023-05-07T01:50:31;9.80;99.90
67163;DHT22;54092;53.088;8.850;2023-05-07T01:52:57;9.80;99.90
67163;DHT22;54092;53.088;8.850;2023-05-07T01:55:23;9.80;99.90
67163;DHT22;54092;53.088;8.850;2023-05-07T01:57:48;9.70;99.90
67163;DHT22;54092;53.088;8.850;2023-05-07T02:00:14;9.70;99.90
67163;DHT22;54092;53.088;8.850;2023-05-07T02:02:40;9.70;99.90
67163;DHT22;54092;53.088;8.850;2023-05-07T02:05:06;9.70;99.90
67163;DHT22;54092;53.088;8.850;2023-05-07T02:07:31;9.70;99.90
67163;DHT22;54092;53.088;8.850;2023-05-07T02:09:57;9.60;99.90
67163;DHT22;54092;53.088;8.850;2023-05-07T02:12:23;9.60;99.90
67163;DHT22;54092;53.088;8.850;2023-05-07T02:14:49;9.60;99.90
67163;DHT22;54092;53.088;8.850;2023-05-07T02:17:14;9.50;99.90
67163;DHT22;54092;53.088;8.850;2023-05-07T02:19:40;9.50;99.90
67163;DHT22;54092;53.088;8.850;2023-05-07T02:22:06;9.50;99.90
67163;DHT22;54092;53.088;8.850;2023-05-07T02:24:32;9.50;99.90
67163;DHT22;54092;53.088;8.850;2023-05-07T02:26:57;9.50;99.90
67163;DHT22;54092;53.088;8.850;2023-05-07T02:29:23;9.50;99.90
67163;DHT22;54092;53.088;8.850;2023-05-07T02:31:48;9.50;99.90
67163;DHT22;54092;53.088;8.850;2023-05-07T02:34:19;9.60;99.90
67163;DHT22;54092;53.088;8.850;2023-05-07T02:36:44;9.60;99.90
67163;DHT22;54092;53.088;8.850;2023-05-07T02:39:11;9.50;99.90
67163;DHT22;54092;53.088;8.850;2023-05-07T02:41:37;9.60;99.90
67163;DHT22;54092;53.088;8.850;2023-05-07T02:44:03;9.60;99.90
67163;DHT22;54092;53.088;8.850;2023-05-07T02:46:28;9.50;99.90
67163;DHT22;54092;53.088;8.850;2023-05-07T02:48:54;9.60;99.90
67163;DHT22;54092;53.088;8.850;2023-05-07T02:51:21;9.60;99.90
67163;DHT22;54092;53.088;8.850;2023-05-07T02:53:47;9.60;99.90
67163;DHT22;54092;53.088;8.850;2023-05-07T02:56:12;9.60;99.90
67163;DHT22;54092;53.088;8.850;2023-05-07T02:58:38;9.60;99.90
67163;DHT22;54092;53.088;8.850;2023-05-07T03:01:07;9.60;99.90
67163;DHT22;54092;53.088;8.850;2023-05-07T03:03:33;9.60;99.90
67163;DHT22;54092;53.088;8.850;2023-05-07T03:05:59;9.60;99.90
67163;DHT22;54092;53.088;8.850;2023-05-07T03:08:25;9.60;99.90
67163;DHT22;54092;53.088;8.850;2023-05-07T03:10:50;9.60;99.90
67163;DHT22;54092;53.088;8.850;2023-05-07T03:13:16;9.50;99.90
67163;DHT22;54092;53.088;8.850;2023-05-07T03:15:42;9.50;99.90
67163;DHT22;54092;53.088;8.850;2023-05-07T03:18:07;9.60;99.90
67163;DHT22;54092;53.088;8.850;2023-05-07T03:20:33;9.60;99.90
67163;DHT22;54092;53.088;8.850;2023-05-07T03:22:59;9.60;99.90
67163;DHT22;54092;53.088;8.850;2023-05-07T03:25:24;9.60;99.90
67163;DHT22;54092;53.088;8.850;2023-05-07T03:27:50;9.60;99.90
67163;DHT22;54092;53.088;8.850;2023-05-07T03:30:15;9.60;99.90
67163;DHT22;54092;53.088;8.850;2023-05-07T03:32:41;9.60;99.90
67163;DHT22;54092;53.088;8.850;2023-05-07T03:35:07;9.60;99.90
67163;DHT22;54092;53.088;8.850;2023-05-07T03:37:32;9.60;99.90
67163;DHT22;54092;53.088;8.850;2023-05-07T03:39:58;9.60;99.90
67163;DHT22;54092;53.088;8.850;2023-05-07T03:42:24;9.50;99.90
67163;DHT22;54092;53.088;8.850;2023-05-07T03:44:49;9.50;99.90
67163;DHT22;54092;53.088;8.850;2023-05-07T03:47:15;9.50;99.90
67163;DHT22;54092;53.088;8.850;2023-05-07T03:49:40;9.60;99.90
67163;DHT22;54092;53.088;8.850;2023-05-07T03:52:06;9.50;99.90
67163;DHT22;54092;53.088;8.850;2023-05-07T03:54:32;9.50;99.90
67163;DHT22;54092;53.088;8.850;2023-05-07T03:56:57;9.60;99.90
67163;DHT22;54092;53.088;8.850;2023-05-07T03:59:23;9.60;99.90
67163;DHT22;54092;53.088;8.850;2023-05-07T04:01:48;9.60;99.90
67163;DHT22;54092;53.088;8.850;2023-05-07T04:04:14;9.60;99.90
67163;DHT22;54092;53.088;8.850;2023-05-07T04:06:40;9.50;99.90
67163;DHT22;54092;53.088;8.850;2023-05-07T04:09:06;9.60;99.90
67163;DHT22;54092;53.088;8.850;2023-05-07T04:11:31;9.60;99.90
67163;DHT22;54092;53.088;8.850;2023-05-07T04:13:57;9.60;99.90
67163;DHT22;54092;53.088;8.850;2023-05-07T04:16:23;9.60;99.90
67163;DHT22;54092;53.088;8.850;2023-05-07T04:18:48;9.60;99.90
67163;DHT22;54092;53.088;8.850;2023-05-07T04:21:18;9.60;99.90
67163;DHT22;54092;53.088;8.850;2023-05-07T04:23:44;9.60;99.90
67163;DHT22;54092;53.088;8.850;2023-05-07T04:26:09;9.60;99.90
67163;DHT22;54092;53.088;8.850;2023-05-07T04:28:35;9.60;99.90
67163;DHT22;54092;53.088;8.850;2023-05-07T04:31:01;9.60;99.90
67163;DHT22;54092;53.088;8.850;2023-05-07T04:33:27;9.60;99.90
67163;DHT22;54092;53.088;8.850;2023-05-07T04:35:52;9.70;99.90
67163;DHT22;54092;53.088;8.850;2023-05-07T04:38:18;9.70;99.90
67163;DHT22;54092;53.088;8.850;2023-05-07T04:40:44;9.70;99.90
67163;DHT22;54092;53.088;8.850;2023-05-07T04:43:09;9.70;99.90
67163;DHT22;54092;53.088;8.850;2023-05-07T04:45:36;9.70;99.90
67163;DHT22;54092;53.088;8.850;2023-05-07T04:48:02;9.70;99.90
67163;DHT22;54092;53.088;8.850;2023-05-07T04:50:27;9.70;99.90
67163;DHT22;54092;53.088;8.850;2023-05-07T04:52:53;9.80;99.90
67163;DHT22;54092;53.088;8.850;2023-05-07T04:55:18;9.80;99.90
67163;DHT22;54092;53.088;8.850;2023-05-07T04:57:44;9.80;99.90
67163;DHT22;54092;53.088;8.850;2023-05-07T05:00:10;9.80;99.90
67163;DHT22;54092;53.088;8.850;2023-05-07T05:02:39;9.80;99.90
67163;DHT22;54092;53.088;8.850;2023-05-07T05:05:05;9.80;99.90
67163;DHT22;54092;53.088;8.850;2023-05-07T05:07:30;9.90;99.90
67163;DHT22;54092;53.088;8.850;2023-05-07T05:09:56;9.90;99.90
67163;DHT22;54092;53.088;8.850;2023-05-07T05:12:23;10.00;99.90
67163;DHT22;54092;53.088;8.850;2023-05-07T05:14:48;10.00;99.90
67163;DHT22;54092;53.088;8.850;2023-05-07T05:17:14;10.10;99.90
67163;DHT22;54092;53.088;8.850;2023-05-07T05:19:39;10.00;99.90
67163;DHT22;54092;53.088;8.850;2023-05-07T05:22:05;10.00;99.90
67163;DHT22;54092;53.088;8.850;2023-05-07T05:24:31;10.00;99.90
67163;DHT22;54092;53.088;8.850;2023-05-07T05:26:57;10.00;99.90
67163;DHT22;54092;53.088;8.850;2023-05-07T05:29:22;10.20;99.90
67163;DHT22;54092;53.088;8.850;2023-05-07T05:31:48;10.10;99.90
67163;DHT22;54092;53.088;8.850;2023-05-07T05:34:13;10.00;99.90
67163;DHT22;54092;53.088;8.850;2023-05-07T05:36:39;10.10;99.90
67163;DHT22;54092;53.088;8.850;2023-05-07T05:39:04;10.10;99.90
67163;DHT22;54092;53.088;8.850;2023-05-07T05:41:30;10.00;99.90
67163;DHT22;54092;53.088;8.850;2023-05-07T05:43:55;10.10;99.90
67163;DHT22;54092;53.088;8.850;2023-05-07T05:46:21;10.10;99.90
67163;DHT22;54092;53.088;8.850;2023-05-07T05:48:47;10.00;99.90
67163;DHT22;54092;53.088;8.850;2023-05-07T05:51:12;10.10;99.90
67163;DHT22;54092;53.088;8.850;2023-05-07T05:53:38;10.10;99.90
67163;DHT22;54092;53.088;8.850;2023-05-07T05:56:04;10.20;99.90
67163;DHT22;54092;53.088;8.850;2023-05-07T05:58:29;10.20;99.90
67163;DHT22;54092;53.088;8.850;2023-05-07T06:00:55;10.20;99.90
67163;DHT22;54092;53.088;8.850;2023-05-07T06:03:21;10.20;99.90
67163;DHT22;54092;53.088;8.850;2023-05-07T06:05:47;10.20;99.90
67163;DHT22;54092;53.088;8.850;2023-05-07T06:08:13;10.20;99.90
67163;DHT22;54092;53.088;8.850;2023-05-07T06:10:39;10.20;99.90
67163;DHT22;54092;53.088;8.850;2023-05-07T06:13:04;10.20;99.90
67163;DHT22;54092;53.088;8.850;2023-05-07T06:15:30;10.20;99.90
67163;DHT22;54092;53.088;8.850;2023-05-07T06:17:55;10.20;99.90
67163;DHT22;54092;53.088;8.850;2023-05-07T06:20:22;10.20;99.90
67163;DHT22;54092;53.088;8.850;2023-05-07T06:22:48;10.10;99.90
67163;DHT22;54092;53.088;8.850;2023-05-07T06:25:14;10.10;99.90
67163;DHT22;54092;53.088;8.850;2023-05-07T06:27:39;10.20;99.90
67163;DHT22;54092;53.088;8.850;2023-05-07T06:30:06;10.20;99.90
67163;DHT22;54092;53.088;8.850;2023-05-07T06:32:31;10.20;99.90
67163;DHT22;54092;53.088;8.850;2023-05-07T06:34:57;10.10;99.90
67163;DHT22;54092;53.088;8.850;2023-05-07T06:37:22;10.20;99.90
67163;DHT22;54092;53.088;8.850;2023-05-07T06:39:48;10.20;99.90
67163;DHT22;54092;53.088;8.850;2023-05-07T06:42:14;10.30;99.90
67163;DHT22;54092;53.088;8.850;2023-05-07T06:44:39;10.20;99.90
67163;DHT22;54092;53.088;8.850;2023-05-07T06:47:05;10.30;99.90
67163;DHT22;54092;53.088;8.850;2023-05-07T06:49:31;10.20;99.90
67163;DHT22;54092;53.088;8.850;2023-05-07T06:51:56;10.20;99.90
67163;DHT22;54092;53.088;8.850;2023-05-07T06:54:22;10.30;99.90
67163;DHT22;54092;53.088;8.850;2023-05-07T06:56:48;10.40;99.90
67163;DHT22;54092;53.088;8.850;2023-05-07T06:59:14;10.40;99.90
67163;DHT22;54092;53.088;8.850;2023-05-07T07:01:39;10.40;99.90
67163;DHT22;54092;53.088;8.850;2023-05-07T07:04:05;10.50;99.90
67163;DHT22;54092;53.088;8.850;2023-05-07T07:06:31;10.60;99.90
67163;DHT22;54092;53.088;8.850;2023-05-07T07:08:58;10.60;99.90
67163;DHT22;54092;53.088;8.850;2023-05-07T07:11:23;10.70;99.90
67163;DHT22;54092;53.088;8.850;2023-05-07T07:13:49;10.80;99.90
67163;DHT22;54092;53.088;8.850;2023-05-07T07:16:16;10.90;99.90
67163;DHT22;54092;53.088;8.850;2023-05-07T07:18:41;10.90;99.90
67163;DHT22;54092;53.088;8.850;2023-05-07T07:21:07;11.00;99.90
67163;DHT22;54092;53.088;8.850;2023-05-07T07:23:32;11.00;99.90
67163;DHT22;54092;53.088;8.850;2023-05-07T07:25:58;11.00;99.90
67163;DHT22;54092;53.088;8.850;2023-05-07T07:28:23;10.90;99.90
67163;DHT22;54092;53.088;8.850;2023-05-07T07:30:49;11.00;99.90
67163;DHT22;54092;53.088;8.850;2023-05-07T07:33:15;11.10;99.90
67163;DHT22;54092;53.088;8.850;2023-05-07T07:35:41;11.00;99.90
67163;DHT22;54092;53.088;8.850;2023-05-07T07:38:06;11.00;99.90
67163;DHT22;54092;53.088;8.850;2023-05-07T07:40:34;11.00;99.90
67163;DHT22;54092;53.088;8.850;2023-05-07T07:43:00;11.00;99.90
67163;DHT22;54092;53.088;8.850;2023-05-07T07:45:26;11.10;99.90
67163;DHT22;54092;53.088;8.850;2023-05-07T07:47:52;11.10;99.90
67163;DHT22;54092;53.088;8.850;2023-05-07T07:50:18;11.20;99.90
67163;DHT22;54092;53.088;8.850;2023-05-07T07:52:44;11.20;99.90
67163;DHT22;54092;53.088;8.850;2023-05-07T07:55:09;11.30;99.90
67163;DHT22;54092;53.088;8.850;2023-05-07T07:57:35;11.30;99.90
67163;DHT22;54092;53.088;8.850;2023-05-07T08:00:02;11.30;99.90
67163;DHT22;54092;53.088;8.850;2023-05-07T08:02:27;11.40;99.90
67163;DHT22;54092;53.088;8.850;2023-05-07T08:04:53;11.60;99.90
67163;DHT22;54092;53.088;8.850;2023-05-07T08:07:19;11.70;99.90
67163;DHT22;54092;53.088;8.850;2023-05-07T08:09:46;12.00;99.90
67163;DHT22;54092;53.088;8.850;2023-05-07T08:12:12;12.00;99.90
67163;DHT22;54092;53.088;8.850;2023-05-07T08:14:37;11.90;99.90
67163;DHT22;54092;53.088;8.850;2023-05-07T08:17:03;12.10;99.90
67163;DHT22;54092;53.088;8.850;2023-05-07T08:19:29;12.40;99.90
67163;DHT22;54092;53.088;8.850;2023-05-07T08:21:54;12.40;99.90
67163;DHT22;54092;53.088;8.850;2023-05-07T08:24:20;12.30;99.90
67163;DHT22;54092;53.088;8.850;2023-05-07T08:26:46;12.20;99.90
67163;DHT22;54092;53.088;8.850;2023-05-07T08:29:12;12.20;99.90
67163;DHT22;54092;53.088;8.850;2023-05-07T08:31:37;12.20;99.90
67163;DHT22;54092;53.088;8.850;2023-05-07T08:34:05;12.10;99.90
67163;DHT22;54092;53.088;8.850;2023-05-07T08:36:31;12.10;99.90
67163;DHT22;54092;53.088;8.850;2023-05-07T08:38:57;12.10;99.90
67163;DHT22;54092;53.088;8.850;2023-05-07T08:41:22;12.00;99.90
67163;DHT22;54092;53.088;8.850;2023-05-07T08:43:49;12.10;99.90
67163;DHT22;54092;53.088;8.850;2023-05-07T08:46:21;12.30;99.90
67163;DHT22;54092;53.088;8.850;2023-05-07T08:48:51;12.50;99.90
67163;DHT22;54092;53.088;8.850;2023-05-07T08:51:19;12.70;99.90
67163;DHT22;54092;53.088;8.850;2023-05-07T08:53:45;12.80;99.90
67163;DHT22;54092;53.088;8.850;2023-05-07T08:56:12;12.90;99.90
67163;DHT22;54092;53.088;8.850;2023-05-07T08:58:38;12.90;99.90
67163;DHT22;54092;53.088;8.850;2023-05-07T09:01:08;12.90;99.90
67163;DHT22;54092;53.088;8.850;2023-05-07T09:03:34;12.80;99.90
67163;DHT22;54092;53.088;8.850;2023-05-07T09:06:00;12.60;99.90
67163;DHT22;54092;53.088;8.850;2023-05-07T09:08:27;12.60;99.90
67163;DHT22;54092;53.088;8.850;2023-05-07T09:10:53;12.60;99.90
67163;DHT22;54092;53.088;8.850;2023-05-07T09:13:19;12.50;99.90
67163;DHT22;54092;53.088;8.850;2023-05-07T09:15:45;12.50;99.90
67163;DHT22;54092;53.088;8.850;2023-05-07T09:18:11;12.50;99.90
67163;DHT22;54092;53.088;8.850;2023-05-07T09:20:37;12.60;99.90
67163;DHT22;54092;53.088;8.850;2023-05-07T09:23:03;12.60;99.90
67163;DHT22;54092;53.088;8.850;2023-05-07T09:25:32;12.70;99.90
67163;DHT22;54092;53.088;8.850;2023-05-07T09:27:59;12.80;99.90
67163;DHT22;54092;53.088;8.850;2023-05-07T09:30:32;13.00;99.90
67163;DHT22;54092;53.088;8.850;2023-05-07T09:32:59;13.10;99.90
67163;DHT22;54092;53.088;8.850;2023-05-07T09:35:26;13.10;99.90
67163;DHT22;54092;53.088;8.850;2023-05-07T09:37:59;13.30;99.90
67163;DHT22;54092;53.088;8.850;2023-05-07T09:40:26;13.50;99.90
67163;DHT22;54092;53.088;8.850;2023-05-07T09:42:53;13.60;99.90
67163;DHT22;54092;53.088;8.850;2023-05-07T09:45:25;13.40;99.90
67163;DHT22;54092;53.088;8.850;2023-05-07T09:47:55;13.40;99.90
67163;DHT22;54092;53.088;8.850;2023-05-07T09:50:28;13.60;99.90
67163;DHT22;54092;53.088;8.850;2023-05-07T09:52:55;13.90;99.90
67163;DHT22;54092;53.088;8.850;2023-05-07T09:55:22;13.80;99.90
67163;DHT22;54092;53.088;8.850;2023-05-07T09:57:51;14.00;99.90
67163;DHT22;54092;53.088;8.850;2023-05-07T10:00:19;14.20;99.90
67163;DHT22;54092;53.088;8.850;2023-05-07T10:02:46;14.30;99.90
67163;DHT22;54092;53.088;8.850;2023-05-07T10:05:15;14.10;99.90
67163;DHT22;54092;53.088;8.850;2023-05-07T10:07:41;14.10;99.90
67163;DHT22;54092;53.088;8.850;2023-05-07T10:10:07;14.00;99.90
67163;DHT22;54092;53.088;8.850;2023-05-07T10:12:33;14.00;99.90
67163;DHT22;54092;53.088;8.850;2023-05-07T10:15:08;13.90;99.90
67163;DHT22;54092;53.088;8.850;2023-05-07T10:17:38;13.90;99.90
67163;DHT22;54092;53.088;8.850;2023-05-07T10:20:04;14.10;99.90
67163;DHT22;54092;53.088;8.850;2023-05-07T10:22:38;14.10;99.90
67163;DHT22;54092;53.088;8.850;2023-05-07T10:25:09;14.00;99.90
67163;DHT22;54092;53.088;8.850;2023-05-07T10:27:37;14.10;99.90
67163;DHT22;54092;53.088;8.850;2023-05-07T10:30:24;14.10;99.90
67163;DHT22;54092;53.088;8.850;2023-05-07T10:32:53;14.00;99.90
67163;DHT22;54092;53.088;8.850;2023-05-07T10:35:25;13.90;99.90
67163;DHT22;54092;53.088;8.850;2023-05-07T10:37:51;14.00;99.90
67163;DHT22;54092;53.088;8.850;2023-05-07T10:40:18;14.10;99.90
67163;DHT22;54092;53.088;8.850;2023-05-07T10:43:02;14.30;99.90
67163;DHT22;54092;53.088;8.850;2023-05-07T10:45:28;14.50;99.90
67163;DHT22;54092;53.088;8.850;2023-05-07T10:48:16;14.40;99.90
67163;DHT22;54092;53.088;8.850;2023-05-07T10:50:45;14.60;99.90
67163;DHT22;54092;53.088;8.850;2023-05-07T10:55:42;14.70;99.90
67163;DHT22;54092;53.088;8.850;2023-05-07T10:58:23;14.70;99.90
67163;DHT22;54092;53.088;8.850;2023-05-07T11:00:57;14.80;99.90
67163;DHT22;54092;53.088;8.850;2023-05-07T11:03:24;14.90;99.90
67163;DHT22;54092;53.088;8.850;2023-05-07T11:06:09;14.90;99.90
67163;DHT22;54092;53.088;8.850;2023-05-07T11:08:55;15.10;99.90
67163;DHT22;54092;53.088;8.850;2023-05-07T11:11:45;15.80;99.90
67163;DHT22;54092;53.088;8.850;2023-05-07T11:14:11;17.00;99.90
67163;DHT22;54092;53.088;8.850;2023-05-07T11:16:37;17.70;99.90
67163;DHT22;54092;53.088;8.850;2023-05-07T11:19:03;18.20;99.90
67163;DHT22;54092;53.088;8.850;2023-05-07T11:21:35;18.40;99.90
67163;DHT22;54092;53.088;8.850;2023-05-07T11:24:05;18.20;99.90
67163;DHT22;54092;53.088;8.850;2023-05-07T11:26:42;18.20;99.90
67163;DHT22;54092;53.088;8.850;2023-05-07T11:29:19;18.50;99.90
67163;DHT22;54092;53.088;8.850;2023-05-07T11:31:52;18.70;99.90
67163;DHT22;54092;53.088;8.850;2023-05-07T11:34:25;18.20;99.90
67163;DHT22;54092;53.088;8.850;2023-05-07T11:36:52;17.80;99.90
67163;DHT22;54092;53.088;8.850;2023-05-07T11:39:28;17.50;99.90
67163;DHT22;54092;53.088;8.850;2023-05-07T11:41:54;17.40;99.90
67163;DHT22;54092;53.088;8.850;2023-05-07T11:44:20;17.70;99.90
67163;DHT22;54092;53.088;8.850;2023-05-07T11:46:45;17.70;99.90
67163;DHT22;54092;53.088;8.850;2023-05-07T11:49:11;17.70;99.90
67163;DHT22;54092;53.088;8.850;2023-05-07T11:51:37;17.20;99.90
67163;DHT22;54092;53.088;8.850;2023-05-07T11:54:04;17.00;99.90
67163;DHT22;54092;53.088;8.850;2023-05-07T11:56:34;16.90;99.90
67163;DHT22;54092;53.088;8.850;2023-05-07T11:59:00;16.60;99.90
67163;DHT22;54092;53.088;8.850;2023-05-07T12:01:26;16.50;99.90
67163;DHT22;54092;53.088;8.850;2023-05-07T12:03:52;16.50;99.90
67163;DHT22;54092;53.088;8.850;2023-05-07T12:06:18;16.50;99.90
67163;DHT22;54092;53.088;8.850;2023-05-07T12:08:45;16.50;99.90
67163;DHT22;54092;53.088;8.850;2023-05-07T12:11:15;16.50;99.90
67163;DHT22;54092;53.088;8.850;2023-05-07T12:13:41;16.20;99.90
67163;DHT22;54092;53.088;8.850;2023-05-07T12:16:07;16.00;99.90
67163;DHT22;54092;53.088;8.850;2023-05-07T12:18:34;15.90;99.90
67163;DHT22;54092;53.088;8.850;2023-05-07T12:21:00;15.90;99.90
67163;DHT22;54092;53.088;8.850;2023-05-07T12:23:26;15.90;99.90
67163;DHT22;54092;53.088;8.850;2023-05-07T12:25:52;16.00;99.90
67163;DHT22;54092;53.088;8.850;2023-05-07T12:28:19;16.00;99.90
67163;DHT22;54092;53.088;8.850;2023-05-07T12:30:46;16.10;99.90
67163;DHT22;54092;53.088;8.850;2023-05-07T12:33:15;16.10;99.90
67163;DHT22;54092;53.088;8.850;2023-05-07T12:35:42;16.10;99.90
67163;DHT22;54092;53.088;8.850;2023-05-07T12:38:16;16.20;99.90
67163;DHT22;54092;53.088;8.850;2023-05-07T12:43:25;16.40;99.90
67163;DHT22;54092;53.088;8.850;2023-05-07T12:45:54;16.50;99.90
67163;DHT22;54092;53.088;8.850;2023-05-07T12:48:20;16.40;99.90
67163;DHT22;54092;53.088;8.850;2023-05-07T12:50:55;16.60;99.90
67163;DHT22;54092;53.088;8.850;2023-05-07T12:53:24;16.80;99.90
67163;DHT22;54092;53.088;8.850;2023-05-07T12:55:55;16.80;99.90
67163;DHT22;54092;53.088;8.850;2023-05-07T12:58:28;16.80;99.90
67163;DHT22;54092;53.088;8.850;2023-05-07T13:00:55;16.70;99.90
67163;DHT22;54092;53.088;8.850;2023-05-07T13:03:27;16.70;99.90
67163;DHT22;54092;53.088;8.850;2023-05-07T13:05:55;16.80;99.90
67163;DHT22;54092;53.088;8.850;2023-05-07T13:08:25;16.70;99.90
67163;DHT22;54092;53.088;8.850;2023-05-07T13:10:51;16.80;99.90
67163;DHT22;54092;53.088;8.850;2023-05-07T13:13:17;17.00;99.90
67163;DHT22;54092;53.088;8.850;2023-05-07T13:15:42;17.20;99.90
67163;DHT22;54092;53.088;8.850;2023-05-07T13:18:08;17.30;99.90
67163;DHT22;54092;53.088;8.850;2023-05-07T13:20:35;17.40;99.90
67163;DHT22;54092;53.088;8.850;2023-05-07T13:23:01;17.50;99.90
67163;DHT22;54092;53.088;8.850;2023-05-07T13:25:27;17.50;99.90
67163;DHT22;54092;53.088;8.850;2023-05-07T13:27:52;17.50;99.90
67163;DHT22;54092;53.088;8.850;2023-05-07T13:30:18;17.70;99.90
67163;DHT22;54092;53.088;8.850;2023-05-07T13:32:43;17.90;99.90
67163;DHT22;54092;53.088;8.850;2023-05-07T13:35:10;17.70;99.90
67163;DHT22;54092;53.088;8.850;2023-05-07T13:37:36;17.80;99.90
67163;DHT22;54092;53.088;8.850;2023-05-07T13:40:02;17.80;99.90
67163;DHT22;54092;53.088;8.850;2023-05-07T13:42:27;17.90;99.90
67163;DHT22;54092;53.088;8.850;2023-05-07T13:44:53;17.90;99.90
67163;DHT22;54092;53.088;8.850;2023-05-07T13:47:18;17.90;99.90
67163;DHT22;54092;53.088;8.850;2023-05-07T13:49:44;18.00;99.90
67163;DHT22;54092;53.088;8.850;2023-05-07T13:52:09;17.80;99.90
67163;DHT22;54092;53.088;8.850;2023-05-07T13:54:35;17.50;99.90
67163;DHT22;54092;53.088;8.850;2023-05-07T13:57:00;17.40;99.90
67163;DHT22;54092;53.088;8.850;2023-05-07T13:59:26;17.30;99.90
67163;DHT22;54092;53.088;8.850;2023-05-07T14:01:52;17.30;99.90
67163;DHT22;54092;53.088;8.850;2023-05-07T14:04:17;17.20;99.90
67163;DHT22;54092;53.088;8.850;2023-05-07T14:06:43;16.90;99.90
67163;DHT22;54092;53.088;8.850;2023-05-07T14:09:09;16.90;99.90
67163;DHT22;54092;53.088;8.850;2023-05-07T14:11:37;16.90;99.90
67163;DHT22;54092;53.088;8.850;2023-05-07T14:14:02;17.00;99.90
67163;DHT22;54092;53.088;8.850;2023-05-07T14:16:28;16.90;99.90
67163;DHT22;54092;53.088;8.850;2023-05-07T14:18:54;16.90;99.90
67163;DHT22;54092;53.088;8.850;2023-05-07T14:21:19;16.80;99.90
67163;DHT22;54092;53.088;8.850;2023-05-07T14:23:45;16.80;99.90
67163;DHT22;54092;53.088;8.850;2023-05-07T14:26:11;16.80;99.90
67163;DHT22;54092;53.088;8.850;2023-05-07T14:28:36;16.80;99.90
67163;DHT22;54092;53.088;8.850;2023-05-07T14:31:04;16.70;99.90
67163;DHT22;54092;53.088;8.850;2023-05-07T14:33:30;16.60;99.90
67163;DHT22;54092;53.088;8.850;2023-05-07T14:35:56;16.70;99.90
67163;DHT22;54092;53.088;8.850;2023-05-07T14:38:21;16.70;99.90
67163;DHT22;54092;53.088;8.850;2023-05-07T14:40:47;16.80;99.90
67163;DHT22;54092;53.088;8.850;2023-05-07T14:43:12;16.80;99.90
67163;DHT22;54092;53.088;8.850;2023-05-07T14:45:38;16.70;99.90
67163;DHT22;54092;53.088;8.850;2023-05-07T14:48:04;16.80;99.90
67163;DHT22;54092;53.088;8.850;2023-05-07T14:50:29;16.60;99.90
67163;DHT22;54092;53.088;8.850;2023-05-07T14:52:55;16.60;99.90
67163;DHT22;54092;53.088;8.850;2023-05-07T14:55:20;16.60;99.90
67163;DHT22;54092;53.088;8.850;2023-05-07T14:57:46;16.60;99.90
67163;DHT22;54092;53.088;8.850;2023-05-07T15:00:12;16.70;99.90
67163;DHT22;54092;53.088;8.850;2023-05-07T15:02:38;16.80;99.90
67163;DHT22;54092;53.088;8.850;2023-05-07T15:05:04;16.60;99.90
67163;DHT22;54092;53.088;8.850;2023-05-07T15:07:30;16.50;99.90
67163;DHT22;54092;53.088;8.850;2023-05-07T15:09:57;16.50;99.90
67163;DHT22;54092;53.088;8.850;2023-05-07T15:12:23;16.50;99.90
67163;DHT22;54092;53.088;8.850;2023-05-07T15:14:48;16.50;99.90
67163;DHT22;54092;53.088;8.850;2023-05-07T15:17:14;16.40;99.90
67163;DHT22;54092;53.088;8.850;2023-05-07T15:19:40;16.30;99.90
67163;DHT22;54092;53.088;8.850;2023-05-07T15:22:05;16.20;99.90
67163;DHT22;54092;53.088;8.850;2023-05-07T15:24:31;16.30;99.90
67163;DHT22;54092;53.088;8.850;2023-05-07T15:26:57;16.30;99.90
67163;DHT22;54092;53.088;8.850;2023-05-07T15:29:23;16.40;99.90
67163;DHT22;54092;53.088;8.850;2023-05-07T15:31:49;16.50;99.90
67163;DHT22;54092;53.088;8.850;2023-05-07T15:34:16;16.50;99.90
67163;DHT22;54092;53.088;8.850;2023-05-07T15:36:41;16.60;99.90